createdAt,value
2018-08-30T00:01:43.393Z,6.47
2018-08-30T00:04:13.217Z,4.67
2018-08-30T00:06:42.977Z,3.57
2018-08-30T00:09:12.715Z,4.60
2018-08-30T00:11:42.511Z,7.63
2018-08-30T00:14:12.323Z,5.63
2018-08-30T00:16:42.295Z,5.23
2018-08-30T00:19:12.098Z,4.73
2018-08-30T00:21:41.868Z,5.50
2018-08-30T00:24:11.639Z,4.83
2018-08-30T00:26:41.437Z,4.43
2018-08-30T00:29:11.269Z,4.97
2018-08-30T00:31:41.418Z,4.57
2018-08-30T00:34:11.181Z,5.10
2018-08-30T00:36:41.253Z,4.30
2018-08-30T00:39:11.361Z,5.70
2018-08-30T00:41:41.462Z,5.00
2018-08-30T00:44:11.585Z,5.97
2018-08-30T00:46:41.381Z,5.07
2018-08-30T00:49:11.303Z,5.93
2018-08-30T00:51:41.429Z,5.13
2018-08-30T00:54:11.201Z,7.03
2018-08-30T00:56:41.005Z,4.00
2018-08-30T00:59:10.967Z,3.10
2018-08-30T01:01:40.759Z,2.73
2018-08-30T01:04:10.515Z,2.63
2018-08-30T01:06:40.263Z,4.53
2018-08-30T01:09:10.155Z,5.80
2018-08-30T01:11:39.895Z,3.77
2018-08-30T01:14:10.002Z,2.90
2018-08-30T01:16:39.777Z,3.30
2018-08-30T01:19:09.617Z,2.70
2018-08-30T01:21:39.422Z,4.10
2018-08-30T01:24:09.194Z,3.67
2018-08-30T01:26:38.986Z,2.63
2018-08-30T01:29:08.767Z,3.33
2018-08-30T01:31:38.521Z,3.27
2018-08-30T01:34:11.581Z,3.27
2018-08-30T01:36:43.012Z,3.27
2018-08-30T01:39:13.779Z,3.37
2018-08-30T01:41:44.057Z,3.03
2018-08-30T01:44:14.733Z,2.60
2018-08-30T01:46:44.551Z,2.77
2018-08-30T01:49:14.352Z,3.07
2018-08-30T01:51:44.130Z,3.30
2018-08-30T01:54:13.908Z,2.70
2018-08-30T01:56:44.152Z,3.53
2018-08-30T01:59:14.008Z,2.77
2018-08-30T02:01:43.767Z,3.37
2018-08-30T02:04:13.609Z,3.50
2018-08-30T02:06:43.464Z,2.60
2018-08-30T02:09:13.207Z,2.50
2018-08-30T02:11:42.930Z,2.50
2018-08-30T02:14:12.754Z,2.97
2018-08-30T02:16:42.510Z,2.87
2018-08-30T02:19:12.310Z,3.43
2018-08-30T02:21:42.074Z,4.43
2018-08-30T02:24:11.826Z,3.47
2018-08-30T02:26:41.626Z,3.47
2018-08-30T02:29:11.490Z,5.20
2018-08-30T02:31:41.300Z,3.53
2018-08-30T02:34:11.079Z,3.80
2018-08-30T02:36:41.102Z,4.07
2018-08-30T02:39:11.278Z,4.37
2018-08-30T02:41:41.570Z,4.37
2018-08-30T02:44:11.368Z,4.10
2018-08-30T02:46:41.146Z,4.07
2018-08-30T02:49:10.914Z,3.87
2018-08-30T02:51:41.239Z,3.97
2018-08-30T02:54:10.984Z,3.97
2018-08-30T02:56:40.720Z,3.60
2018-08-30T02:59:10.484Z,4.17
2018-08-30T03:01:40.270Z,4.43
2018-08-30T03:04:10.066Z,5.10
2018-08-30T03:06:39.838Z,5.53
2018-08-30T03:09:10.680Z,4.17
2018-08-30T03:11:40.427Z,4.50
2018-08-30T03:14:10.602Z,5.17
2018-08-30T03:16:40.720Z,4.60
2018-08-30T03:19:10.520Z,4.60
2018-08-30T03:21:40.321Z,4.47
2018-08-30T03:24:10.699Z,4.70
2018-08-30T03:26:40.480Z,4.03
2018-08-30T03:29:10.294Z,4.07
2018-08-30T03:31:40.051Z,5.53
2018-08-30T03:34:09.816Z,4.10
2018-08-30T03:36:39.627Z,3.67
2018-08-30T03:39:09.415Z,3.83
2018-08-30T03:41:39.236Z,3.80
2018-08-30T03:44:09.052Z,5.40
2018-08-30T03:46:38.844Z,3.90
2018-08-30T03:49:08.650Z,4.20
2018-08-30T03:51:38.440Z,4.10
2018-08-30T03:54:08.272Z,4.77
2018-08-30T03:56:38.696Z,5.37
2018-08-30T03:59:08.511Z,4.27
2018-08-30T04:01:38.310Z,4.67
2018-08-30T04:04:08.142Z,4.87
2018-08-30T04:06:38.242Z,4.43
2018-08-30T04:09:09.590Z,4.60
2018-08-30T04:11:39.377Z,4.60
2018-08-30T04:14:09.168Z,4.83
2018-08-30T04:16:38.950Z,4.60
2018-08-30T04:19:09.100Z,4.50
2018-08-30T04:21:38.881Z,4.73
2018-08-30T04:24:09.958Z,7.20
2018-08-30T04:26:39.732Z,4.60
2018-08-30T04:29:09.585Z,5.23
2018-08-30T04:31:39.351Z,4.20
2018-08-30T04:34:10.072Z,4.57
2018-08-30T04:36:39.864Z,4.43
2018-08-30T04:39:10.186Z,5.00
2018-08-30T04:41:39.975Z,4.20
2018-08-30T04:44:10.125Z,4.97
2018-08-30T04:46:39.906Z,4.23
2018-08-30T04:49:09.715Z,4.07
2018-08-30T04:51:39.524Z,4.40
2018-08-30T04:54:09.673Z,4.50
2018-08-30T04:56:39.491Z,4.00
2018-08-30T04:59:09.348Z,4.60
2018-08-30T05:01:39.167Z,3.63
2018-08-30T05:04:09.176Z,3.90
2018-08-30T05:06:39.036Z,3.40
2018-08-30T05:09:11.540Z,3.70
2018-08-30T05:11:41.687Z,4.67
2018-08-30T05:14:11.443Z,5.47
2018-08-30T05:16:41.228Z,4.50
2018-08-30T05:19:11.165Z,5.03
2018-08-30T05:21:40.991Z,4.57
2018-08-30T05:24:10.759Z,3.93
2018-08-30T05:26:40.603Z,3.83
2018-08-30T05:29:10.409Z,3.70
2018-08-30T05:31:40.531Z,3.53
2018-08-30T05:34:10.494Z,2.97
2018-08-30T05:36:40.350Z,3.00
2018-08-30T05:39:10.199Z,4.57
2018-08-30T05:41:39.995Z,2.90
2018-08-30T05:44:09.788Z,3.30
2018-08-30T05:46:39.721Z,2.60
2018-08-30T05:49:09.579Z,3.10
2018-08-30T05:51:39.861Z,3.00
2018-08-30T05:54:09.662Z,2.93
2018-08-30T05:56:39.898Z,2.80
2018-08-30T05:59:09.711Z,3.57
2018-08-30T06:01:40.298Z,5.67
2018-08-30T06:04:10.112Z,3.73
2018-08-30T06:06:40.953Z,3.30
2018-08-30T06:09:10.771Z,5.10
2018-08-30T06:11:40.571Z,5.20
2018-08-30T06:14:10.365Z,5.43
2018-08-30T06:16:40.224Z,4.27
2018-08-30T06:19:10.151Z,4.90
2018-08-30T06:21:39.944Z,4.77
2018-08-30T06:24:09.796Z,5.63
2018-08-30T06:26:39.900Z,6.60
2018-08-30T06:29:10.269Z,5.43
2018-08-30T06:31:40.345Z,6.73
2018-08-30T06:34:10.481Z,6.00
2018-08-30T06:36:40.265Z,7.07
2018-08-30T06:39:10.437Z,11.53
2018-08-30T06:41:40.242Z,7.10
2018-08-30T06:44:10.079Z,6.63
2018-08-30T06:46:40.025Z,6.70
2018-08-30T06:49:09.769Z,7.97
2018-08-30T06:51:40.033Z,7.57
2018-08-30T06:54:09.948Z,8.27
2018-08-30T06:56:39.854Z,8.17
2018-08-30T06:59:09.666Z,7.10
2018-08-30T07:01:39.510Z,8.33
2018-08-30T07:04:09.861Z,7.37
2018-08-30T07:06:39.970Z,7.67
2018-08-30T07:09:11.790Z,7.10
2018-08-30T07:11:41.955Z,10.73
2018-08-30T07:14:11.765Z,8.63
2018-08-30T07:16:41.566Z,8.73
2018-08-30T07:19:11.418Z,7.30
2018-08-30T07:21:41.223Z,7.63
2018-08-30T07:24:11.044Z,7.67
2018-08-30T07:26:41.019Z,7.53
2018-08-30T07:29:11.224Z,6.70
2018-08-30T07:31:41.016Z,7.40
2018-08-30T07:34:10.845Z,8.23
2018-08-30T07:36:40.816Z,8.63
2018-08-30T07:39:12.402Z,9.63
2018-08-30T07:41:42.548Z,7.60
2018-08-30T07:44:12.894Z,8.47
2018-08-30T07:46:42.811Z,8.33
2018-08-30T07:49:12.626Z,7.77
2018-08-30T07:51:43.001Z,8.00
2018-08-30T07:54:12.798Z,8.20
2018-08-30T07:56:42.578Z,7.10
2018-08-30T07:59:12.376Z,9.23
2018-08-30T08:01:42.220Z,7.90
2018-08-30T08:04:12.126Z,9.37
2018-08-30T08:06:42.239Z,8.57
2018-08-30T08:09:12.033Z,8.63
2018-08-30T08:11:41.854Z,8.47
2018-08-30T08:14:11.956Z,7.90
2018-08-30T08:16:41.905Z,9.57
2018-08-30T08:19:11.706Z,8.23
2018-08-30T08:21:41.740Z,8.87
2018-08-30T08:24:11.550Z,8.43
2018-08-30T08:26:41.723Z,9.93
2018-08-30T08:29:11.534Z,7.23
2018-08-30T08:31:41.470Z,9.23
2018-08-30T08:34:11.263Z,9.37
2018-08-30T08:36:41.534Z,8.77
2018-08-30T08:39:11.433Z,7.43
2018-08-30T08:41:41.264Z,7.57
2018-08-30T08:44:11.053Z,7.93
2018-08-30T08:46:40.909Z,8.73
2018-08-30T08:49:10.730Z,8.07
2018-08-30T08:51:40.676Z,7.67
2018-08-30T08:54:10.510Z,7.53
2018-08-30T08:56:40.653Z,8.93
2018-08-30T08:59:11.006Z,7.80
2018-08-30T09:01:40.938Z,11.57
2018-08-30T09:04:10.776Z,7.83
2018-08-30T09:06:40.597Z,7.93
2018-08-30T09:09:12.094Z,8.33
2018-08-30T09:11:42.840Z,9.60
2018-08-30T09:14:12.982Z,8.13
2018-08-30T09:16:43.986Z,8.93
2018-08-30T09:19:14.728Z,8.00
2018-08-30T09:21:45.108Z,8.85
2018-08-30T09:24:15.472Z,8.50
2018-08-30T09:26:45.870Z,8.08
2018-08-30T09:29:16.415Z,8.60
2018-08-30T09:31:46.748Z,9.13
2018-08-30T09:34:17.142Z,7.65
2018-08-30T09:36:47.481Z,8.43
2018-08-30T09:39:18.262Z,7.80
2018-08-30T09:41:48.600Z,8.05
2018-08-30T09:44:19.270Z,8.85
2018-08-30T09:46:49.373Z,7.60
2018-08-30T09:49:19.275Z,8.73
2018-08-30T09:51:49.742Z,7.95
2018-08-30T09:54:19.662Z,7.67
2018-08-30T09:56:49.912Z,8.10
2018-08-30T09:59:20.773Z,8.78
2018-08-30T10:01:55.140Z,8.13
2018-08-30T10:04:25.519Z,12.68
2018-08-30T10:06:56.460Z,9.15
2018-08-30T10:09:27.124Z,7.33
2018-08-30T10:11:57.444Z,8.23
2018-08-30T10:14:27.814Z,7.80
2018-08-30T10:16:58.450Z,9.75
2018-08-30T10:19:28.808Z,10.00
2018-08-30T10:21:59.182Z,9.43
2018-08-30T10:24:29.580Z,9.10
2018-08-30T10:26:59.963Z,9.48
2018-08-30T10:29:30.750Z,8.80
2018-08-30T10:32:01.116Z,10.15
2018-08-30T10:34:31.462Z,8.30
2018-08-30T10:37:01.781Z,9.48
2018-08-30T10:39:32.372Z,8.78
2018-08-30T10:42:02.705Z,8.35
2018-08-30T10:44:33.037Z,9.08
2018-08-30T10:47:03.555Z,10.60
2018-08-30T10:49:33.685Z,8.30
2018-08-30T10:52:03.611Z,8.77
2018-08-30T10:54:33.998Z,8.50
2018-08-30T10:57:04.122Z,9.18
2018-08-30T10:59:34.030Z,9.13
2018-08-30T11:02:04.426Z,8.53
2018-08-30T11:04:34.754Z,10.55
2018-08-30T11:07:04.828Z,8.77
2018-08-30T11:09:34.729Z,8.45
2018-08-30T11:12:05.269Z,8.45
2018-08-30T11:14:35.041Z,10.83
2018-08-30T11:17:05.963Z,11.55
2018-08-30T11:19:36.337Z,10.20
2018-08-30T11:22:07.725Z,14.35
2018-08-30T11:24:38.316Z,14.68
2018-08-30T11:27:08.943Z,11.57
2018-08-30T11:29:39.351Z,12.30
2018-08-30T11:32:09.705Z,10.13
2018-08-30T11:34:40.113Z,12.90
2018-08-30T11:37:11.295Z,10.50
2018-08-30T11:39:41.665Z,12.70
2018-08-30T11:42:12.065Z,10.72
2018-08-30T11:44:42.493Z,11.10
2018-08-30T11:47:12.967Z,10.35
2018-08-30T11:49:43.495Z,9.55
2018-08-30T11:52:14.305Z,14.13
2018-08-30T11:54:45.326Z,11.68
2018-08-30T11:57:15.733Z,12.65
2018-08-30T11:59:46.099Z,10.88
2018-08-30T12:02:16.627Z,12.35
2018-08-30T12:04:47.081Z,9.93
2018-08-30T12:07:17.471Z,9.95
2018-08-30T12:09:48.419Z,9.28
2018-08-30T12:12:18.788Z,9.00
2018-08-30T12:14:49.347Z,9.30
2018-08-30T12:17:19.771Z,10.93
2018-08-30T12:19:50.204Z,9.53
2018-08-30T12:22:20.627Z,10.03
2018-08-30T12:24:51.008Z,9.75
2018-08-30T12:27:21.495Z,10.68
2018-08-30T12:29:51.908Z,9.70
2018-08-30T12:32:22.503Z,10.00
2018-08-30T12:34:53.166Z,10.23
2018-08-30T12:37:23.872Z,10.75
2018-08-30T12:39:54.545Z,10.85
2018-08-30T12:42:25.053Z,10.43
2018-08-30T12:44:55.682Z,10.05
2018-08-30T12:47:26.229Z,9.90
2018-08-30T12:49:56.768Z,8.55
2018-08-30T12:52:27.321Z,8.40
2018-08-30T12:54:58.204Z,10.32
2018-08-30T12:57:28.820Z,9.93
2018-08-30T12:59:59.664Z,10.13
2018-08-30T13:02:30.364Z,9.68
2018-08-30T13:05:00.991Z,11.43
2018-08-30T13:07:32.984Z,9.75
2018-08-30T13:10:03.672Z,10.63
2018-08-30T13:12:34.261Z,11.55
2018-08-30T13:15:05.266Z,8.90
2018-08-30T13:17:35.611Z,9.45
2018-08-30T13:20:07.172Z,8.90
2018-08-30T13:22:38.135Z,10.08
2018-08-30T13:25:08.774Z,10.72
2018-08-30T13:27:39.771Z,12.43
2018-08-30T13:30:10.480Z,10.95
2018-08-30T13:32:41.164Z,12.40
2018-08-30T13:35:11.753Z,10.50
2018-08-30T13:37:42.345Z,10.53
2018-08-30T13:40:13.198Z,9.85
2018-08-30T13:42:43.771Z,10.20
2018-08-30T13:45:14.358Z,10.32
2018-08-30T13:47:44.925Z,13.10
2018-08-30T13:50:15.546Z,11.93
2018-08-30T13:52:46.201Z,11.20
2018-08-30T13:55:16.827Z,11.57
2018-08-30T13:57:47.494Z,10.70
2018-08-30T14:00:18.110Z,10.23
2018-08-30T14:02:48.353Z,12.65
2018-08-30T14:05:18.907Z,11.10
2018-08-30T14:07:49.568Z,12.13
2018-08-30T14:10:20.217Z,11.43
2018-08-30T14:12:50.953Z,10.70
2018-08-30T14:15:21.598Z,13.68
2018-08-30T14:17:51.932Z,12.50
2018-08-30T14:20:23.300Z,10.72
2018-08-30T14:22:53.680Z,11.20
2018-08-30T14:25:24.028Z,11.20
2018-08-30T14:27:54.515Z,11.50
2018-08-30T14:30:25.101Z,11.22
2018-08-30T14:32:55.526Z,11.93
2018-08-30T14:35:26.119Z,12.40
2018-08-30T14:37:56.490Z,11.55
2018-08-30T14:40:26.985Z,10.58
2018-08-30T14:42:57.656Z,12.07
2018-08-30T14:45:28.079Z,12.73
2018-08-30T14:47:58.555Z,11.08
2018-08-30T14:50:29.103Z,11.70
2018-08-30T14:52:59.921Z,11.80
2018-08-30T14:55:30.462Z,11.80
2018-08-30T14:58:00.917Z,10.70
2018-08-30T15:00:31.378Z,11.65
2018-08-30T15:03:01.938Z,10.85
2018-08-30T15:05:33.360Z,10.58
2018-08-30T15:08:03.801Z,12.37
2018-08-30T15:10:34.190Z,9.45
2018-08-30T15:13:04.709Z,10.20
2018-08-30T15:15:35.105Z,10.93
2018-08-30T15:18:05.604Z,10.53
2018-08-30T15:20:35.996Z,9.43
2018-08-30T15:23:07.307Z,11.63
2018-08-30T15:25:37.919Z,8.68
2018-08-30T15:28:08.485Z,9.88
2018-08-30T15:30:39.057Z,11.68
2018-08-30T15:33:09.458Z,9.40
2018-08-30T15:35:39.887Z,9.95
2018-08-30T15:38:10.489Z,9.20
2018-08-30T15:40:41.167Z,10.60
2018-08-30T15:43:11.781Z,10.68
2018-08-30T15:45:42.381Z,11.68
2018-08-30T15:48:13.096Z,10.40
2018-08-30T15:50:43.559Z,10.25
2018-08-30T15:53:14.384Z,10.82
2018-08-30T15:55:45.288Z,10.82
2018-08-30T15:58:15.686Z,9.90
2018-08-30T16:00:46.289Z,11.28
2018-08-30T16:03:16.714Z,12.43
2018-08-30T16:05:47.291Z,10.95
2018-08-30T16:08:17.694Z,12.50
2018-08-30T16:10:48.272Z,13.03
2018-08-30T16:13:18.777Z,9.88
2018-08-30T16:15:49.145Z,12.33
2018-08-30T16:18:20.773Z,9.63
2018-08-30T16:20:51.163Z,12.18
2018-08-30T16:23:40.882Z,9.95
2018-08-30T16:26:12.036Z,12.05
2018-08-30T16:28:42.570Z,10.85
2018-08-30T16:31:13.018Z,9.55
2018-08-30T16:33:43.509Z,9.53
2018-08-30T16:36:14.065Z,9.75
2018-08-30T16:38:44.557Z,12.13
2018-08-30T16:41:15.162Z,10.05
2018-08-30T16:43:45.751Z,12.03
2018-08-30T16:46:16.311Z,10.50
2018-08-30T16:48:46.753Z,11.45
2018-08-30T16:51:17.382Z,10.08
2018-08-30T16:53:47.763Z,11.05
2018-08-30T16:56:18.721Z,10.08
2018-08-30T16:58:49.280Z,9.15
2018-08-30T17:01:19.182Z,11.25
2018-08-30T17:03:49.973Z,10.98
2018-08-30T17:06:19.867Z,10.75
2018-08-30T17:08:49.963Z,12.47
2018-08-30T17:11:19.848Z,9.60
2018-08-30T17:13:49.871Z,9.30
2018-08-30T17:19:55.443Z,10.13
2018-08-30T17:22:25.687Z,9.07
2018-08-30T17:24:55.738Z,12.20
2018-08-30T17:27:25.705Z,9.67
2018-08-30T17:29:55.536Z,10.20
2018-08-30T17:32:25.353Z,13.50
2018-08-30T17:34:55.227Z,9.37
2018-08-30T17:37:25.066Z,8.63
2018-08-30T17:39:55.116Z,12.20
2018-08-30T17:42:25.167Z,9.63
2018-08-30T17:44:55.113Z,10.33
2018-08-30T17:47:24.953Z,10.90
2018-08-30T17:49:55.366Z,9.33
2018-08-30T17:52:25.339Z,11.13
2018-08-30T17:54:55.251Z,9.03
2018-08-30T17:57:25.230Z,11.13
2018-08-30T17:59:55.052Z,9.00
2018-08-30T18:02:25.193Z,8.03
2018-08-30T18:04:55.035Z,8.33
2018-08-30T18:07:25.062Z,9.13
2018-08-30T18:09:55.179Z,8.33
2018-08-30T18:12:25.007Z,8.10
2018-08-30T18:14:55.196Z,10.10
2018-08-30T18:17:25.076Z,9.53
2018-08-30T18:20:55.985Z,11.47
2018-08-30T18:23:25.807Z,9.50
2018-08-30T18:25:55.680Z,9.00
2018-08-30T18:28:25.593Z,11.47
2018-08-30T18:30:55.479Z,9.47
2018-08-30T18:33:25.618Z,9.33
2018-08-30T18:35:55.484Z,10.10
2018-08-30T18:38:25.362Z,8.60
2018-08-30T18:40:55.277Z,10.13
2018-08-30T18:43:25.300Z,10.57
2018-08-30T18:45:58.463Z,11.50
2018-08-30T18:48:30.514Z,9.00
2018-08-30T18:51:00.942Z,9.80
2018-08-30T18:53:30.820Z,7.93
2018-08-30T18:56:00.720Z,8.60
2018-08-30T18:58:30.628Z,10.87
2018-08-30T19:01:01.538Z,7.92
2018-08-30T19:03:32.201Z,9.33
2018-08-30T19:06:02.290Z,8.53
2018-08-30T19:08:33.684Z,11.57
2018-08-30T19:11:04.650Z,8.83
2018-08-30T19:13:34.559Z,8.30
2018-08-30T19:16:10.186Z,9.58
2018-08-30T19:18:46.084Z,8.70
2018-08-30T19:21:17.376Z,8.33
2018-08-30T19:23:47.776Z,9.23
2018-08-30T19:26:18.398Z,8.85
2018-08-30T19:28:49.294Z,8.83
2018-08-30T19:31:20.028Z,8.93
2018-08-30T19:33:50.649Z,9.80
2018-08-30T19:36:26.445Z,8.20
2018-08-30T19:38:56.932Z,8.33
2018-08-30T19:41:28.374Z,11.60
2018-08-30T19:43:58.690Z,8.87
2018-08-30T19:46:28.569Z,8.83
2018-08-30T19:48:58.499Z,8.98
2018-08-30T19:51:28.451Z,10.40
2018-08-30T19:53:58.352Z,10.57
2018-08-30T19:56:28.383Z,10.83
2018-08-30T19:58:58.229Z,9.53
2018-08-30T20:01:28.074Z,11.40
2018-08-30T20:03:58.043Z,8.93
2018-08-30T20:06:27.863Z,8.83
2018-08-30T20:08:57.731Z,9.80
2018-08-30T20:11:28.085Z,10.15
2018-08-30T20:13:58.013Z,9.77
2018-08-30T20:16:27.842Z,9.80
2018-08-30T20:18:58.225Z,9.97
2018-08-30T20:21:28.680Z,11.20
2018-08-30T20:23:58.480Z,8.80
2018-08-30T20:26:28.349Z,10.30
2018-08-30T20:28:58.236Z,9.55
2018-08-30T20:31:28.226Z,9.93
2018-08-30T20:33:58.049Z,8.73
2018-08-30T20:36:27.882Z,10.60
2018-08-30T20:38:57.792Z,9.87
2018-08-30T20:41:27.709Z,11.18
2018-08-30T20:43:57.526Z,12.10
2018-08-30T20:46:27.342Z,12.07
2018-08-30T20:48:57.192Z,11.47
2018-08-30T20:51:28.216Z,8.97
2018-08-30T20:53:58.110Z,10.20
2018-08-30T20:56:29.742Z,10.33
2018-08-30T20:58:59.879Z,9.57
2018-08-30T21:01:29.967Z,10.70
2018-08-30T21:04:00.280Z,13.70
2018-08-30T21:06:30.960Z,9.87
2018-08-30T21:09:01.149Z,15.13
2018-08-30T21:11:32.017Z,12.20
2018-08-30T21:14:02.019Z,10.00
2018-08-30T21:16:32.044Z,11.30
2018-08-30T21:19:01.901Z,9.93
2018-08-30T21:21:32.183Z,10.17
2018-08-30T21:24:02.012Z,11.23
2018-08-30T21:26:31.889Z,10.73
2018-08-30T21:29:01.839Z,9.40
2018-08-30T21:31:31.821Z,9.33
2018-08-30T21:34:01.707Z,9.93
2018-08-30T21:36:31.380Z,9.47
2018-08-30T21:39:02.082Z,10.80
2018-08-30T21:41:32.405Z,13.10
2018-08-30T21:44:02.213Z,10.20
2018-08-30T21:46:32.100Z,9.60
2018-08-30T21:49:02.989Z,9.70
2018-08-30T21:51:32.969Z,9.13
2018-08-30T21:54:02.795Z,9.97
2018-08-30T21:56:32.575Z,11.93
2018-08-30T21:59:02.631Z,11.70
2018-08-30T22:05:08.087Z,12.93
2018-08-30T22:07:37.890Z,9.20
2018-08-30T22:10:07.873Z,10.13
2018-08-30T22:12:38.401Z,8.77
2018-08-30T22:15:08.699Z,9.80
2018-08-30T22:17:39.233Z,9.43
2018-08-30T22:20:09.081Z,9.53
2018-08-30T22:22:39.264Z,10.13
2018-08-30T22:25:11.683Z,8.23
2018-08-30T22:27:41.965Z,9.43
2018-08-30T22:30:13.637Z,12.00
2018-08-30T22:32:43.707Z,9.07
2018-08-30T22:35:13.547Z,9.50
2018-08-30T22:37:43.391Z,9.37
2018-08-30T22:40:13.240Z,9.37
2018-08-30T22:46:18.825Z,8.93
2018-08-30T22:48:48.725Z,10.50
2018-08-30T22:51:18.569Z,10.53
2018-08-30T22:53:48.445Z,9.63
2018-08-30T22:56:18.275Z,10.00
2018-08-30T22:58:48.255Z,9.67
2018-08-30T23:01:18.067Z,9.20
2018-08-30T23:03:47.879Z,11.23
2018-08-30T23:06:17.667Z,9.07
2018-08-30T23:08:47.563Z,11.77
2018-08-30T23:11:18.003Z,9.97
2018-08-30T23:13:47.774Z,10.50
2018-08-30T23:16:17.549Z,9.13
2018-08-30T23:18:47.403Z,9.93
2018-08-30T23:21:17.243Z,14.63
2018-08-30T23:23:47.586Z,11.23
2018-08-30T23:26:17.413Z,9.20
2018-08-30T23:28:47.301Z,10.23
2018-08-30T23:31:17.170Z,10.10
2018-08-30T23:33:47.411Z,9.63
2018-08-30T23:36:17.425Z,11.07
2018-08-30T23:38:47.231Z,9.93
2018-08-30T23:41:17.137Z,10.23
2018-08-30T23:43:47.038Z,9.90
2018-08-30T23:46:16.907Z,10.10
2018-08-30T23:48:47.071Z,9.40
2018-08-30T23:51:16.965Z,9.50
2018-08-30T23:53:46.875Z,10.00
2018-08-30T23:56:16.787Z,11.63
2018-08-30T23:59:03.417Z,14.53
